createdAt,value
2018-09-29T09:03:01.144Z,29.50
2018-09-29T09:05:34.580Z,29.10
2018-09-29T09:08:07.997Z,30.77
2018-09-29T09:10:41.433Z,29.00
2018-09-29T09:13:14.843Z,28.87
2018-09-29T09:15:48.278Z,28.13
2018-09-29T09:18:21.698Z,29.30
2018-09-29T09:20:55.132Z,28.60
2018-09-29T09:23:28.659Z,28.97
2018-09-29T09:26:02.208Z,29.43
2018-09-29T09:28:35.706Z,29.37
2018-09-29T09:31:09.153Z,28.67
2018-09-29T09:33:42.568Z,29.57
2018-09-29T09:36:16.072Z,29.02
2018-09-29T09:38:49.487Z,29.05
2018-09-29T09:41:22.964Z,29.52
2018-09-29T09:43:56.403Z,29.10
2018-09-29T09:46:29.859Z,28.63
2018-09-29T09:49:03.333Z,28.60
2018-09-29T09:51:36.800Z,29.50
2018-09-29T09:54:10.247Z,29.23
2018-09-29T09:56:43.721Z,29.15
2018-09-29T09:59:17.160Z,28.62
2018-09-29T10:01:55.796Z,28.55
2018-09-29T10:04:29.333Z,29.02
2018-09-29T10:07:06.449Z,28.80
2018-09-29T10:09:39.896Z,29.50
2018-09-29T10:12:13.371Z,28.95
2018-09-29T10:14:46.841Z,29.52
2018-09-29T10:17:20.381Z,29.67
2018-09-29T10:19:53.813Z,28.42
2018-09-29T10:22:27.296Z,28.60
2018-09-29T10:25:00.764Z,28.67
2018-09-29T10:27:34.209Z,28.23
2018-09-29T10:30:07.960Z,29.15
2018-09-29T10:32:41.497Z,29.10
2018-09-29T10:35:14.959Z,29.02
2018-09-29T10:37:48.395Z,28.98
2018-09-29T10:40:21.880Z,29.02
2018-09-29T10:42:55.308Z,29.05
2018-09-29T10:45:28.767Z,29.35
2018-09-29T10:48:02.199Z,28.70
2018-09-29T10:50:35.655Z,29.15
2018-09-29T10:53:09.099Z,28.92
2018-09-29T10:55:42.547Z,28.87
2018-09-29T10:58:15.972Z,29.23
2018-09-29T11:00:49.420Z,28.90
2018-09-29T11:03:22.851Z,29.12
2018-09-29T11:05:56.319Z,29.82
2018-09-29T11:08:29.780Z,29.12
2018-09-29T11:11:03.321Z,28.92
2018-09-29T11:13:36.860Z,29.27
2018-09-29T11:16:10.373Z,29.00
2018-09-29T11:18:43.824Z,29.27
2018-09-29T11:21:17.284Z,29.87
2018-09-29T11:23:50.719Z,29.05
2018-09-29T11:26:24.232Z,29.50
2018-09-29T11:28:57.742Z,29.50
2018-09-29T11:31:31.212Z,29.63
2018-09-29T11:34:04.652Z,29.45
2018-09-29T11:36:38.115Z,29.32
2018-09-29T11:39:12.670Z,29.35
2018-09-29T11:41:46.107Z,29.12
2018-09-29T11:44:19.536Z,29.67
2018-09-29T11:46:52.991Z,29.10
2018-09-29T11:49:26.423Z,29.32
2018-09-29T11:51:59.920Z,29.52
2018-09-29T11:54:33.371Z,28.87
2018-09-29T11:57:06.947Z,29.23
2018-09-29T11:59:40.412Z,29.70
2018-09-29T12:02:13.972Z,28.95
2018-09-29T12:04:47.692Z,29.70
2018-09-29T12:07:21.222Z,29.72
2018-09-29T12:09:54.614Z,29.07
2018-09-29T12:12:28.176Z,29.32
2018-09-29T12:15:01.612Z,29.12
2018-09-29T12:17:35.056Z,29.07
2018-09-29T12:20:08.585Z,29.05
2018-09-29T12:22:42.048Z,29.05
2018-09-29T12:25:15.553Z,29.37
2018-09-29T12:27:49.012Z,29.27
2018-09-29T12:30:22.465Z,28.85
2018-09-29T12:32:55.948Z,29.30
2018-09-29T12:35:29.392Z,29.23
2018-09-29T12:38:03.027Z,29.12
2018-09-29T12:40:36.456Z,29.72
2018-09-29T12:43:09.892Z,29.30
2018-09-29T12:45:43.307Z,29.15
2018-09-29T12:48:16.727Z,28.98
2018-09-29T12:50:50.152Z,29.15
2018-09-29T12:53:23.592Z,29.10
2018-09-29T12:55:57.024Z,29.27
2018-09-29T12:58:30.480Z,29.67
2018-09-29T13:01:03.915Z,29.80
2018-09-29T13:03:37.348Z,29.50
2018-09-29T13:06:10.756Z,29.67
2018-09-29T13:08:45.317Z,29.87
2018-09-29T13:11:18.728Z,30.05
2018-09-29T13:13:52.171Z,29.87
2018-09-29T13:16:25.612Z,29.40
2018-09-29T13:18:59.384Z,29.35
2018-09-29T13:21:32.792Z,29.92
2018-09-29T13:24:06.247Z,30.75
2018-09-29T13:26:39.667Z,29.80
2018-09-29T13:29:13.103Z,30.05
2018-09-29T13:31:46.591Z,30.30
2018-09-29T13:34:19.967Z,29.87
2018-09-29T13:36:54.270Z,30.32
2018-09-29T13:39:27.705Z,29.77
2018-09-29T13:42:01.132Z,30.35
2018-09-29T13:44:34.559Z,30.05
2018-09-29T13:47:07.972Z,30.17
2018-09-29T13:49:41.405Z,30.40
2018-09-29T13:52:14.815Z,29.95
2018-09-29T13:54:48.239Z,30.08
2018-09-29T13:57:21.664Z,29.80
2018-09-29T13:59:55.165Z,29.75
2018-09-29T14:02:28.572Z,30.27
2018-09-29T14:05:02.012Z,30.00
2018-09-29T14:07:35.419Z,30.45
2018-09-29T14:10:08.866Z,30.72
2018-09-29T14:12:42.276Z,30.43
2018-09-29T14:15:16.731Z,30.30
2018-09-29T14:17:50.131Z,30.00
2018-09-29T14:20:23.583Z,30.35
2018-09-29T14:22:56.991Z,30.12
2018-09-29T14:25:30.427Z,30.70
2018-09-29T14:28:03.855Z,29.65
2018-09-29T14:30:37.284Z,30.32
2018-09-29T14:33:10.707Z,31.12
2018-09-29T14:35:44.139Z,29.98
2018-09-29T14:38:17.543Z,30.48
2018-09-29T14:40:51.112Z,30.08
2018-09-29T14:43:24.544Z,30.05
2018-09-29T14:45:58.147Z,30.12
2018-09-29T14:48:31.596Z,30.20
2018-09-29T14:51:05.057Z,30.32
2018-09-29T14:53:38.488Z,30.40
2018-09-29T14:56:11.956Z,30.12
2018-09-29T14:58:45.396Z,30.50
2018-09-29T15:01:18.848Z,31.25
2018-09-29T15:03:52.288Z,30.40
2018-09-29T15:06:25.831Z,30.43
2018-09-29T15:08:59.264Z,30.82
2018-09-29T15:11:32.708Z,31.20
2018-09-29T15:14:06.425Z,30.75
2018-09-29T15:16:39.929Z,30.72
2018-09-29T15:19:13.363Z,31.05
2018-09-29T15:21:46.843Z,30.90
2018-09-29T15:24:20.276Z,30.43
2018-09-29T15:26:54.820Z,30.62
2018-09-29T15:29:28.248Z,30.75
2018-09-29T15:32:01.708Z,31.42
2018-09-29T15:34:35.145Z,31.02
2018-09-29T15:37:08.645Z,31.10
2018-09-29T15:39:42.067Z,31.05
2018-09-29T15:42:15.571Z,30.52
2018-09-29T15:44:48.983Z,31.00
2018-09-29T15:47:22.443Z,30.85
2018-09-29T15:49:55.855Z,30.52
2018-09-29T15:52:29.330Z,30.70
2018-09-29T15:55:02.826Z,30.80
2018-09-29T15:57:36.196Z,31.15
2018-09-29T16:00:09.664Z,30.45
2018-09-29T16:02:43.096Z,31.05
2018-09-29T16:05:16.515Z,30.75
2018-09-29T16:07:49.935Z,31.30
2018-09-29T16:10:23.440Z,30.72
2018-09-29T16:12:56.875Z,30.75
2018-09-29T16:15:30.308Z,30.88
2018-09-29T16:18:03.740Z,31.10
2018-09-29T16:20:37.155Z,30.57
2018-09-29T16:23:10.592Z,30.97
2018-09-29T16:25:44.005Z,30.92
2018-09-29T16:28:17.436Z,30.48
2018-09-29T16:30:50.852Z,30.60
2018-09-29T16:33:24.331Z,30.75
2018-09-29T16:35:57.836Z,30.82
2018-09-29T16:38:31.415Z,31.00
2018-09-29T16:41:04.757Z,31.20
2018-09-29T16:43:38.278Z,30.05
2018-09-29T16:46:11.756Z,30.50
2018-09-29T16:48:45.236Z,31.25
2018-09-29T16:51:18.671Z,30.25
2018-09-29T16:53:52.135Z,30.32
2018-09-29T16:56:25.609Z,30.70
2018-09-29T16:58:59.059Z,30.97
2018-09-29T17:01:32.495Z,30.52
2018-09-29T17:04:06.118Z,30.72
2018-09-29T17:06:39.548Z,30.12
2018-09-29T17:09:13.472Z,30.80
2018-09-29T17:11:46.920Z,30.72
2018-09-29T17:14:20.387Z,30.48
2018-09-29T17:16:53.814Z,30.70
2018-09-29T17:19:27.275Z,30.30
2018-09-29T17:22:00.720Z,30.40
2018-09-29T17:24:34.195Z,30.57
2018-09-29T17:27:07.641Z,30.25
2018-09-29T17:29:41.104Z,29.72
2018-09-29T17:32:14.569Z,30.60
2018-09-29T17:34:48.028Z,30.48
2018-09-29T17:37:21.468Z,30.72
2018-09-29T17:39:54.920Z,30.27
2018-09-29T17:42:28.404Z,30.52
2018-09-29T17:45:01.882Z,30.80
2018-09-29T17:47:35.323Z,30.92
2018-09-29T17:50:09.665Z,30.80
2018-09-29T17:52:43.191Z,30.75
2018-09-29T17:55:17.069Z,31.05
2018-09-29T17:57:50.520Z,30.23
2018-09-29T18:00:23.972Z,30.55
2018-09-29T18:02:57.455Z,30.60
2018-09-29T18:05:30.892Z,30.15
2018-09-29T18:08:05.399Z,30.57
2018-09-29T18:10:38.836Z,30.45
2018-09-29T18:13:12.340Z,30.57
2018-09-29T18:15:45.803Z,31.70
2018-09-29T18:18:19.256Z,30.10
2018-09-29T18:20:52.704Z,29.85
2018-09-29T18:23:26.148Z,30.10
2018-09-29T18:25:59.579Z,29.92
2018-09-29T18:28:33.032Z,30.55
2018-09-29T18:31:06.536Z,30.48
2018-09-29T18:33:39.984Z,30.60
2018-09-29T18:36:13.491Z,31.12
2018-09-29T18:38:46.883Z,30.10
2018-09-29T18:41:20.340Z,30.37
2018-09-29T18:43:53.787Z,29.55
2018-09-29T18:46:27.224Z,29.90
2018-09-29T18:49:00.687Z,29.52
2018-09-29T18:51:34.173Z,29.35
2018-09-29T18:54:07.617Z,30.17
2018-09-29T18:56:41.070Z,29.72
2018-09-29T18:59:14.536Z,29.50
2018-09-29T19:01:48.017Z,30.25
2018-09-29T19:04:21.520Z,29.35
2018-09-29T19:06:54.965Z,29.30
2018-09-29T19:09:28.436Z,29.52
2018-09-29T19:12:01.929Z,29.65
2018-09-29T19:14:35.420Z,30.30
2018-09-29T19:17:08.877Z,30.72
2018-09-29T19:19:42.344Z,33.15
2018-09-29T19:22:15.818Z,33.02
2018-09-29T19:24:49.300Z,33.28
2018-09-29T19:27:23.892Z,34.65
2018-09-29T19:29:57.346Z,34.00
2018-09-29T19:32:30.805Z,32.88
2018-09-29T19:35:04.327Z,32.10
2018-09-29T19:37:37.767Z,32.45
2018-09-29T19:40:12.508Z,31.77
2018-09-29T19:42:45.927Z,31.93
2018-09-29T19:45:19.433Z,31.93
2018-09-29T19:47:52.838Z,30.85
2018-09-29T19:50:26.371Z,31.20
2018-09-29T19:52:59.794Z,30.43
2018-09-29T19:55:33.267Z,29.60
2018-09-29T19:58:06.791Z,30.17
2018-09-29T20:00:40.247Z,30.15
2018-09-29T20:03:13.767Z,30.32
2018-09-29T20:05:47.244Z,39.30
2018-09-29T20:08:20.679Z,30.32
2018-09-29T20:10:54.139Z,30.30
2018-09-29T20:13:27.568Z,31.20
2018-09-29T20:16:02.135Z,31.00
2018-09-29T20:18:35.563Z,31.70
2018-09-29T20:21:09.011Z,29.98
2018-09-29T20:23:42.431Z,30.25
2018-09-29T20:26:15.963Z,30.05
2018-09-29T20:28:49.384Z,30.10
2018-09-29T20:31:22.827Z,30.85
2018-09-29T20:33:56.255Z,30.02
2018-09-29T20:36:29.695Z,30.15
2018-09-29T20:39:03.239Z,29.82
2018-09-29T20:41:36.732Z,29.60
2018-09-29T20:44:10.588Z,30.02
2018-09-29T20:46:44.023Z,29.98
2018-09-29T20:49:17.487Z,29.95
2018-09-29T20:51:50.943Z,29.90
2018-09-29T20:54:24.437Z,29.72
2018-09-29T20:56:57.951Z,29.37
2018-09-29T20:59:31.419Z,29.75
2018-09-29T21:02:04.916Z,30.05
2018-09-29T21:04:38.348Z,29.92
2018-09-29T21:07:12.072Z,29.75
2018-09-29T21:09:45.502Z,29.77
2018-09-29T21:12:18.951Z,29.75
2018-09-29T21:14:52.371Z,30.37
2018-09-29T21:17:25.816Z,30.43
2018-09-29T21:19:59.243Z,30.08
2018-09-29T21:22:32.743Z,30.20
2018-09-29T21:25:06.194Z,29.57
2018-09-29T21:27:39.647Z,29.48
2018-09-29T21:30:13.071Z,29.87
2018-09-29T21:32:46.516Z,29.75
2018-09-29T21:35:19.943Z,29.90
2018-09-29T21:37:53.419Z,29.63
2018-09-29T21:40:26.863Z,29.30
2018-09-29T21:43:00.315Z,30.30
2018-09-29T21:45:33.743Z,30.05
2018-09-29T21:48:07.214Z,29.00
2018-09-29T21:50:40.635Z,30.10
2018-09-29T21:53:14.075Z,29.82
2018-09-29T21:55:47.495Z,29.57
2018-09-29T21:58:20.930Z,29.23
2018-09-29T22:01:00.662Z,29.70
2018-09-29T22:03:34.103Z,29.82
2018-09-29T22:06:07.560Z,29.87
2018-09-29T22:08:41.000Z,29.83
2018-09-29T22:11:14.512Z,30.67
2018-09-29T22:13:47.948Z,30.68
2018-09-29T22:16:21.403Z,30.23
2018-09-29T22:18:54.839Z,29.57
2018-09-29T22:21:28.347Z,29.57
2018-09-29T22:24:01.768Z,29.20
2018-09-29T22:26:35.245Z,29.23
2018-09-29T22:29:08.671Z,29.35
2018-09-29T22:31:42.146Z,29.93
2018-09-29T22:34:15.571Z,29.50
2018-09-29T22:36:49.019Z,29.40
2018-09-29T22:39:22.447Z,29.73
2018-09-29T22:41:55.919Z,29.87
2018-09-29T22:44:29.348Z,30.37
2018-09-29T22:47:02.823Z,30.03
2018-09-29T22:49:36.243Z,29.67
2018-09-29T22:52:09.691Z,30.07
2018-09-29T22:54:43.124Z,29.93
2018-09-29T22:57:16.610Z,29.90
2018-09-29T22:59:50.072Z,30.37
2018-09-29T23:02:23.607Z,30.10
2018-09-29T23:04:57.043Z,30.50
2018-09-29T23:07:30.485Z,29.43
2018-09-29T23:10:03.987Z,30.17
2018-09-29T23:12:37.425Z,29.50
2018-09-29T23:15:10.871Z,29.77
2018-09-29T23:17:44.320Z,29.50
2018-09-29T23:20:17.816Z,30.00
2018-09-29T23:22:51.259Z,30.00
2018-09-29T23:25:24.692Z,29.10
2018-09-29T23:27:58.160Z,29.73
2018-09-29T23:30:31.623Z,29.87
2018-09-29T23:33:05.140Z,29.80
2018-09-29T23:35:38.583Z,29.73
2018-09-29T23:38:12.051Z,29.53
2018-09-29T23:40:45.520Z,29.77
2018-09-29T23:43:18.955Z,29.80
2018-09-29T23:45:52.386Z,29.93
2018-09-29T23:48:25.807Z,29.63
2018-09-29T23:50:59.240Z,29.47
2018-09-29T23:53:34.683Z,29.07
2018-09-29T23:56:08.131Z,30.80
2018-09-29T23:58:41.559Z,29.90
